Flight Track Log - Related Links

Times and Time Zones

All times are in EDT time to prevent confusion due to time zone crossing. See the N4644J flight status page for this flight to view local times or setup timezone preferences in your user account.

Time Position Orientation Groundspeed Altitude Reporting Facility
EDT Latitude Longitude Course Direction KTS MPH feet Rate Location/Type
Wed 06:09:00 PM 35.2118 -78.1444 211° Southwest  Level Estimated
Wed 06:10:00 PM 35.1807 -78.1668 210° Southwest  Level Estimated
Wed 06:11:00 PM 35.1496 -78.1891 210° Southwest  Level Estimated
Wed 06:12:00 PM 35.1185 -78.2114 210° Southwest  Level Estimated
Wed 06:13:00 PM 35.0874 -78.2337 210° Southwest  Level Estimated
Wed 06:14:00 PM 35.0563 -78.2560 210° Southwest  Level Estimated
Wed 06:15:00 PM 35.0251 -78.2783 210° Southwest  Level Estimated
Wed 06:16:00 PM 34.9940 -78.3006 210° Southwest  Level Estimated
Wed 06:17:00 PM 34.9628 -78.3228 210° Southwest  Level Estimated
Wed 06:18:00 PM 34.9317 -78.3450 210° Southwest  Level Estimated
Wed 06:19:00 PM 34.9006 -78.3672 210° Southwest  Level Estimated
Wed 06:20:00 PM 34.8694 -78.3894 210° Southwest  Level Estimated
Wed 06:21:00 PM 34.8383 -78.4116 210° Southwest  Level Estimated
Wed 06:22:00 PM 34.8071 -78.4338 210° Southwest  Level Estimated
Wed 06:23:00 PM 34.7760 -78.4559 210° Southwest  Level Estimated
Wed 06:24:00 PM 34.7448 -78.4780 210° Southwest  Level Estimated
Wed 06:25:00 PM 34.7136 -78.5001 210° Southwest  Level Estimated
Wed 06:26:00 PM 34.6824 -78.5222 210° Southwest  Level Estimated
Wed 06:27:00 PM 34.6513 -78.5443 210° Southwest  Level Estimated
Wed 06:28:00 PM 34.6201 -78.5664 210° Southwest  Level Estimated
Wed 06:29:00 PM 34.6018 -78.5793 210° Southwest  Level Estimated
Wed 06:30:00 PM 34.6018 -78.5793 351° North  Level Estimated
Wed 06:31:00 PM 34.6018 -78.5793 351° North  Level Estimated
Wed 06:32:00 PM 34.6018 -78.5793 351° North  Level Estimated
Wed 06:33:00 PM 34.6018 -78.5793 351° North  Level Estimated
Wed 06:34:00 PM 34.6018 -78.5793 351° North  Level Estimated
Wed 06:35:00 PM 34.6018 -78.5793 351° North  Level Estimated
Wed 06:36:00 PM 34.6018 -78.5793 351° North  Level Estimated
Wed 06:37:00 PM 34.6018 -78.5793 351° North  Level Estimated
Wed 06:38:00 PM 34.6018 -78.5793 351° North  Level Estimated

Login

Don't have an account? Register now (free) for customized features, flight alerts, and more!